createdAt,value
2019-04-30T00:00:06.345Z,85.66
2019-04-30T00:02:57.277Z,85.75
2019-04-30T00:05:30.550Z,85.87
2019-04-30T00:08:05.804Z,86.04
2019-04-30T00:10:41.143Z,85.84
2019-04-30T00:13:17.530Z,85.70
2019-04-30T00:15:48.052Z,85.76
2019-04-30T00:18:20.274Z,85.51
2019-04-30T00:20:52.226Z,85.50
2019-04-30T00:23:27.117Z,85.79
2019-04-30T00:26:05.123Z,85.81
2019-04-30T00:28:31.726Z,85.84
2019-04-30T00:31:05.477Z,86.04
2019-04-30T00:33:37.536Z,86.42
2019-04-30T00:36:09.569Z,86.14
2019-04-30T00:38:41.866Z,86.22
2019-04-30T00:41:15.562Z,85.95
2019-04-30T00:43:50.879Z,85.21
2019-04-30T00:46:25.012Z,85.25
2019-04-30T00:49:08.317Z,85.20
2019-04-30T00:51:31.548Z,85.22
2019-04-30T00:54:05.520Z,85.48
2019-04-30T00:56:37.289Z,85.35
2019-04-30T00:59:10.458Z,85.38
2019-04-30T01:02:00.769Z,86.17
2019-04-30T01:04:37.479Z,85.79
2019-04-30T01:07:10.268Z,85.57
2019-04-30T01:09:46.572Z,85.51
2019-04-30T01:12:17.473Z,85.65
2019-04-30T01:14:50.013Z,85.51
2019-04-30T01:17:21.990Z,85.73
2019-04-30T01:19:54.648Z,86.03
2019-04-30T01:22:31.161Z,85.97
2019-04-30T01:25:08.043Z,86.04
2019-04-30T01:27:34.753Z,86.20
2019-04-30T01:30:08.711Z,86.05
2019-04-30T01:32:40.749Z,85.90
2019-04-30T01:35:13.109Z,85.91
2019-04-30T01:37:44.028Z,86.05
2019-04-30T01:40:16.068Z,86.65
2019-04-30T01:42:48.545Z,86.34
2019-04-30T01:45:23.143Z,85.94
2019-04-30T01:47:53.069Z,86.26
2019-04-30T01:50:24.168Z,86.08
2019-04-30T01:52:59.123Z,86.41
2019-04-30T01:55:53.209Z,86.55
2019-04-30T01:58:42.321Z,86.55
2019-04-30T02:01:18.993Z,87.22
2019-04-30T02:03:51.590Z,87.40
2019-04-30T02:06:23.549Z,87.49
2019-04-30T02:08:55.576Z,87.41
2019-04-30T02:11:28.886Z,87.29
2019-04-30T02:14:00.979Z,86.82
2019-04-30T02:16:32.909Z,86.77
2019-04-30T02:19:05.199Z,86.57
2019-04-30T02:21:38.565Z,86.30
2019-04-30T02:24:11.233Z,86.25
2019-04-30T02:26:43.399Z,85.93
2019-04-30T02:29:15.277Z,86.09
2019-04-30T02:31:47.318Z,86.11
2019-04-30T02:34:30.374Z,86.30
2019-04-30T02:37:11.327Z,86.33
2019-04-30T02:39:43.270Z,86.74
2019-04-30T02:42:15.665Z,86.98
2019-04-30T02:44:50.404Z,87.24
2019-04-30T02:47:24.988Z,87.27
2019-04-30T02:50:11.576Z,87.21
2019-04-30T02:52:33.274Z,87.30
2019-04-30T02:55:09.472Z,87.25
2019-04-30T02:57:40.899Z,87.32
2019-04-30T03:00:20.021Z,87.47
2019-04-30T03:02:50.915Z,87.47
2019-04-30T03:05:22.855Z,87.32
2019-04-30T03:07:55.105Z,87.19
2019-04-30T03:10:30.357Z,86.97
2019-04-30T03:13:02.937Z,86.81
2019-04-30T03:15:34.958Z,86.76
2019-04-30T03:18:23.089Z,86.72
2019-04-30T03:21:12.353Z,86.85
2019-04-30T03:23:44.294Z,87.05
2019-04-30T03:26:16.314Z,87.04
2019-04-30T03:28:49.309Z,87.15
2019-04-30T03:31:22.615Z,87.44
2019-04-30T03:33:54.725Z,87.04
2019-04-30T03:36:27.257Z,86.88
2019-04-30T03:38:59.991Z,86.90
2019-04-30T03:41:33.444Z,86.87
2019-04-30T03:44:17.227Z,86.71
2019-04-30T03:46:40.215Z,86.71
2019-04-30T03:49:13.376Z,86.87
2019-04-30T03:51:45.784Z,86.88
2019-04-30T03:54:19.303Z,87.05
2019-04-30T03:56:53.255Z,87.07
2019-04-30T03:59:25.235Z,87.12
2019-04-30T04:02:21.893Z,86.90
2019-04-30T04:05:20.271Z,86.88
2019-04-30T04:08:22.979Z,86.69
2019-04-30T04:11:20.735Z,86.50
2019-04-30T04:13:53.036Z,86.51
2019-04-30T04:16:25.705Z,86.39
2019-04-30T04:18:59.856Z,86.24
2019-04-30T04:21:31.327Z,86.17
2019-04-30T04:24:03.399Z,85.97
2019-04-30T04:26:35.353Z,85.85
2019-04-30T04:29:09.435Z,85.46
2019-04-30T04:31:41.104Z,85.38
2019-04-30T04:34:13.134Z,85.20
2019-04-30T04:36:45.173Z,85.51
2019-04-30T04:39:19.901Z,85.22
2019-04-30T04:41:50.984Z,85.17
2019-04-30T04:44:22.983Z,85.13
2019-04-30T04:46:55.153Z,85.33
2019-04-30T04:49:30.312Z,84.94
2019-04-30T04:52:01.334Z,84.24
2019-04-30T04:54:33.467Z,84.10
2019-04-30T04:57:14.888Z,84.16
2019-04-30T04:59:42.473Z,84.61
2019-04-30T05:02:32.811Z,83.86
2019-04-30T05:05:04.399Z,83.02
2019-04-30T05:07:35.335Z,82.61
2019-04-30T05:10:09.180Z,84.00
2019-04-30T05:12:41.573Z,82.86
2019-04-30T05:15:13.997Z,81.96
2019-04-30T05:17:46.233Z,82.08
2019-04-30T05:20:19.277Z,81.63
2019-04-30T05:22:52.492Z,83.43
2019-04-30T05:25:24.664Z,81.92
2019-04-30T05:27:58.586Z,81.33
2019-04-30T05:30:30.453Z,81.70
2019-04-30T05:33:02.413Z,80.63
2019-04-30T05:35:34.553Z,80.44
2019-04-30T05:38:06.653Z,80.81
2019-04-30T05:40:42.478Z,79.93
2019-04-30T05:43:13.634Z,80.51
2019-04-30T05:45:45.615Z,79.42
2019-04-30T05:48:18.604Z,80.02
2019-04-30T05:50:51.822Z,79.08
2019-04-30T05:53:23.964Z,78.58
2019-04-30T05:55:55.392Z,78.45
2019-04-30T05:58:29.772Z,79.59
2019-04-30T06:01:01.121Z,78.57
2019-04-30T06:03:33.497Z,78.79
2019-04-30T06:06:05.803Z,78.91
2019-04-30T06:09:06.658Z,78.72
2019-04-30T06:11:53.949Z,78.47
2019-04-30T06:14:31.893Z,78.10
2019-04-30T06:17:09.907Z,77.60
2019-04-30T06:19:42.194Z,76.70
2019-04-30T06:22:13.842Z,76.94
2019-04-30T06:24:49.414Z,79.19
2019-04-30T06:27:29.097Z,74.36
2019-04-30T06:30:01.842Z,73.42
2019-04-30T06:32:35.053Z,72.43
2019-04-30T06:35:09.573Z,72.30
2019-04-30T06:37:41.773Z,70.94
2019-04-30T06:40:13.661Z,70.73
2019-04-30T06:42:46.053Z,67.53
2019-04-30T06:45:19.177Z,70.36
2019-04-30T06:47:52.573Z,70.60
2019-04-30T06:50:24.643Z,71.00
2019-04-30T06:53:00.967Z,71.81
2019-04-30T06:55:31.068Z,71.97
2019-04-30T06:58:11.971Z,72.53
2019-04-30T07:00:39.976Z,71.68
2019-04-30T07:03:12.034Z,71.50
2019-04-30T07:05:42.951Z,71.11
2019-04-30T07:08:39.504Z,68.53
2019-04-30T07:11:24.993Z,70.02
2019-04-30T07:13:57.054Z,68.43
2019-04-30T07:16:29.818Z,67.43
2019-04-30T07:19:02.321Z,67.27
2019-04-30T07:21:36.412Z,66.84
2019-04-30T07:24:09.412Z,66.75
2019-04-30T07:26:41.674Z,67.21
2019-04-30T07:29:13.879Z,67.38
2019-04-30T07:31:46.053Z,67.55
2019-04-30T07:34:19.654Z,67.37
2019-04-30T07:37:10.880Z,67.31
2019-04-30T07:39:31.674Z,66.25
2019-04-30T07:41:59.998Z,65.78
2019-04-30T07:44:36.457Z,65.37
2019-04-30T07:47:06.253Z,64.00
2019-04-30T07:49:49.681Z,64.28
2019-04-30T07:52:12.701Z,63.61
2019-04-30T07:54:51.568Z,61.99
2019-04-30T07:57:22.243Z,59.61
2019-04-30T07:59:54.417Z,59.04
2019-04-30T08:02:29.747Z,60.43
2019-04-30T08:05:20.933Z,59.29
2019-04-30T08:07:53.022Z,56.49
2019-04-30T08:10:24.432Z,56.27
2019-04-30T08:13:08.361Z,47.79
2019-04-30T08:15:30.253Z,56.06
2019-04-30T08:18:05.724Z,56.05
2019-04-30T08:20:36.153Z,53.30
2019-04-30T08:23:20.293Z,49.69
2019-04-30T08:25:39.633Z,49.62
2019-04-30T08:28:11.573Z,46.97
2019-04-30T08:30:43.714Z,51.46
2019-04-30T08:33:16.277Z,50.16
2019-04-30T08:35:49.898Z,51.74
2019-04-30T08:38:22.036Z,49.78
2019-04-30T08:40:58.110Z,51.42
2019-04-30T08:43:29.264Z,50.85
2019-04-30T08:46:02.023Z,49.28
2019-04-30T08:48:47.921Z,48.38
2019-04-30T08:51:09.597Z,50.13
2019-04-30T08:53:41.489Z,49.92
2019-04-30T08:56:13.641Z,50.55
2019-04-30T08:58:45.763Z,52.51
2019-04-30T09:01:19.601Z,52.01
2019-04-30T09:03:52.293Z,51.17
2019-04-30T09:06:26.334Z,52.52
2019-04-30T09:09:12.222Z,52.76
2019-04-30T09:11:53.078Z,49.53
2019-04-30T09:14:18.741Z,54.93
2019-04-30T09:16:52.020Z,55.48
2019-04-30T09:19:24.234Z,55.47
2019-04-30T09:21:55.272Z,55.50
2019-04-30T09:24:30.692Z,50.39
2019-04-30T09:27:00.860Z,52.81
2019-04-30T09:29:32.953Z,51.40
2019-04-30T09:32:04.159Z,51.50
2019-04-30T09:34:36.143Z,45.67
2019-04-30T09:37:08.703Z,51.60
2019-04-30T09:39:40.713Z,51.36
2019-04-30T09:42:13.723Z,51.20
2019-04-30T09:44:45.963Z,52.60
2019-04-30T09:47:20.064Z,53.81
2019-04-30T09:49:52.554Z,53.56
2019-04-30T09:52:24.583Z,53.23
2019-04-30T09:54:59.266Z,53.44
2019-04-30T09:57:31.637Z,54.44
2019-04-30T10:00:02.739Z,54.74
2019-04-30T10:02:36.234Z,51.25
2019-04-30T10:05:07.597Z,55.91
2019-04-30T10:07:39.893Z,52.92
2019-04-30T10:10:12.792Z,56.32
2019-04-30T10:12:43.532Z,53.47
2019-04-30T10:15:28.942Z,55.64
2019-04-30T10:18:01.302Z,55.80
2019-04-30T10:20:44.003Z,56.00
2019-04-30T10:23:15.957Z,54.99
2019-04-30T10:25:48.435Z,55.25
2019-04-30T10:28:20.593Z,54.07
2019-04-30T10:30:52.555Z,53.80
2019-04-30T10:33:23.712Z,52.99
2019-04-30T10:35:55.613Z,49.01
2019-04-30T10:38:26.683Z,53.93
2019-04-30T10:40:58.814Z,53.17
2019-04-30T10:43:32.017Z,54.65
2019-04-30T10:46:05.063Z,55.02
2019-04-30T10:48:37.193Z,55.58
2019-04-30T10:51:09.931Z,53.84
2019-04-30T10:53:43.256Z,52.93
2019-04-30T10:56:15.643Z,50.85
2019-04-30T10:58:48.032Z,45.94
2019-04-30T11:01:20.114Z,47.12
2019-04-30T11:03:53.127Z,49.64
2019-04-30T11:06:38.142Z,45.73
2019-04-30T11:12:09.523Z,50.05
2019-04-30T11:14:42.131Z,48.39
2019-04-30T11:17:20.079Z,45.94
2019-04-30T11:22:31.958Z,44.52
2019-04-30T11:25:04.638Z,45.86
2019-04-30T11:27:50.171Z,47.99
2019-04-30T11:30:26.779Z,49.88
2019-04-30T11:33:08.153Z,51.96
2019-04-30T11:35:40.443Z,52.40
2019-04-30T11:38:12.473Z,53.66
2019-04-30T11:40:43.532Z,51.35
2019-04-30T11:43:15.334Z,45.42
2019-04-30T11:46:15.032Z,48.01
2019-04-30T11:48:48.888Z,44.49
2019-04-30T11:51:21.125Z,50.59
2019-04-30T11:53:54.293Z,50.95
2019-04-30T11:56:26.173Z,51.31
2019-04-30T11:58:58.977Z,51.10
2019-04-30T12:01:32.432Z,51.97
2019-04-30T12:04:04.923Z,48.78
2019-04-30T12:06:37.133Z,51.40
2019-04-30T12:09:21.483Z,51.29
2019-04-30T12:11:55.383Z,47.49
2019-04-30T12:14:29.631Z,48.53
2019-04-30T12:17:02.603Z,47.75
2019-04-30T12:19:33.811Z,46.66
2019-04-30T12:22:05.724Z,44.82
2019-04-30T12:24:38.824Z,50.68
2019-04-30T12:27:12.374Z,52.09
2019-04-30T12:29:49.551Z,52.11
2019-04-30T12:32:22.753Z,51.90
2019-04-30T12:34:59.297Z,52.32
2019-04-30T12:37:39.503Z,53.18
2019-04-30T12:40:25.861Z,53.85
2019-04-30T12:42:48.893Z,52.25
2019-04-30T12:45:22.001Z,51.25
2019-04-30T12:47:57.981Z,52.34
2019-04-30T12:50:40.773Z,52.99
2019-04-30T12:53:18.875Z,54.32
2019-04-30T12:56:27.163Z,55.33
2019-04-30T12:58:57.014Z,54.92
2019-04-30T13:01:31.750Z,52.64
2019-04-30T13:04:01.542Z,47.79
2019-04-30T13:06:36.145Z,50.02
2019-04-30T13:09:13.373Z,51.92
2019-04-30T13:11:46.745Z,52.98
2019-04-30T13:14:20.499Z,53.08
2019-04-30T13:16:52.855Z,53.08
2019-04-30T13:19:25.015Z,52.31
2019-04-30T13:21:58.656Z,49.34
2019-04-30T13:24:37.743Z,47.45
2019-04-30T13:27:10.913Z,47.09
2019-04-30T13:29:51.793Z,48.15
2019-04-30T13:32:30.092Z,49.23
2019-04-30T13:35:00.953Z,48.29
2019-04-30T13:37:54.523Z,47.04
2019-04-30T13:40:49.049Z,46.37
2019-04-30T13:43:41.633Z,46.32
2019-04-30T13:46:13.693Z,46.97
2019-04-30T13:48:44.832Z,43.91
2019-04-30T13:51:18.293Z,41.41
2019-04-30T13:53:53.463Z,47.68
2019-04-30T13:56:25.462Z,48.56
2019-04-30T13:58:58.633Z,49.01
2019-04-30T14:01:30.371Z,48.22
2019-04-30T14:04:21.284Z,45.11
2019-04-30T14:07:18.993Z,47.21
2019-04-30T14:09:52.486Z,47.19
2019-04-30T14:12:24.982Z,46.88
2019-04-30T14:14:57.043Z,46.94
2019-04-30T14:17:29.626Z,46.61
2019-04-30T14:20:01.654Z,43.46
2019-04-30T14:22:35.093Z,45.74
2019-04-30T14:25:10.274Z,45.73
2019-04-30T14:27:51.834Z,44.86
2019-04-30T14:30:16.861Z,44.80
2019-04-30T14:32:50.735Z,45.90
2019-04-30T14:35:23.353Z,47.23
2019-04-30T14:37:55.356Z,48.22
2019-04-30T14:40:27.579Z,48.17
2019-04-30T14:43:12.572Z,46.06
2019-04-30T14:46:03.960Z,49.14
2019-04-30T14:48:43.024Z,49.14
2019-04-30T14:51:16.484Z,47.53
2019-04-30T14:54:04.731Z,46.76
2019-04-30T14:56:59.444Z,41.55
2019-04-30T15:00:01.985Z,44.34
2019-04-30T15:02:39.873Z,45.46
2019-04-30T15:05:12.315Z,45.36
2019-04-30T15:07:44.464Z,45.25
2019-04-30T15:10:18.372Z,45.69
2019-04-30T15:12:50.185Z,42.94
2019-04-30T15:15:22.573Z,47.96
2019-04-30T15:17:54.514Z,47.97
2019-04-30T15:20:26.883Z,48.01
2019-04-30T15:23:19.104Z,47.15
2019-04-30T15:25:50.327Z,47.79
2019-04-30T15:28:22.363Z,48.47
2019-04-30T15:30:54.333Z,48.19
2019-04-30T15:33:45.273Z,48.45
2019-04-30T15:36:19.250Z,47.85
2019-04-30T15:39:09.054Z,48.34
2019-04-30T15:41:44.213Z,48.78
2019-04-30T15:44:16.373Z,48.65
2019-04-30T15:46:48.112Z,48.17
2019-04-30T15:49:22.622Z,45.18
2019-04-30T15:51:55.284Z,49.31
2019-04-30T15:54:29.245Z,48.77
2019-04-30T15:57:01.843Z,49.12
2019-04-30T15:59:44.133Z,48.80
2019-04-30T16:02:35.673Z,49.50
2019-04-30T16:05:25.373Z,49.87
2019-04-30T16:08:08.895Z,50.41
2019-04-30T16:11:08.108Z,50.37
2019-04-30T16:13:58.588Z,50.57
2019-04-30T16:16:35.034Z,50.18
2019-04-30T16:19:09.156Z,50.81
2019-04-30T16:21:41.393Z,51.12
2019-04-30T16:24:13.493Z,52.08
2019-04-30T16:26:49.502Z,51.86
2019-04-30T16:29:19.774Z,51.24
2019-04-30T16:31:51.844Z,52.38
2019-04-30T16:34:24.343Z,53.04
2019-04-30T16:36:59.049Z,53.21
2019-04-30T16:39:31.113Z,53.71
2019-04-30T16:42:03.055Z,53.79
2019-04-30T16:44:35.164Z,54.11
2019-04-30T16:47:14.645Z,54.17
2019-04-30T16:49:46.419Z,54.48
2019-04-30T16:52:19.122Z,54.64
2019-04-30T16:54:51.173Z,54.81
2019-04-30T16:57:23.195Z,55.24
2019-04-30T16:59:55.264Z,55.21
2019-04-30T17:02:29.697Z,55.98
2019-04-30T17:05:23.474Z,55.80
2019-04-30T17:08:09.417Z,56.19
2019-04-30T17:11:15.632Z,56.35
2019-04-30T17:13:54.144Z,56.79
2019-04-30T17:16:26.274Z,57.04
2019-04-30T17:18:58.956Z,57.28
2019-04-30T17:21:30.934Z,56.52
2019-04-30T17:24:03.386Z,58.38
2019-04-30T17:26:36.072Z,59.06
2019-04-30T17:29:09.608Z,59.76
2019-04-30T17:31:41.796Z,60.09
2019-04-30T17:34:14.004Z,60.50
2019-04-30T17:36:46.233Z,60.87
2019-04-30T17:39:19.992Z,61.34
2019-04-30T17:41:51.983Z,63.36
2019-04-30T17:44:22.992Z,62.50
2019-04-30T17:46:54.743Z,63.80
2019-04-30T17:49:30.954Z,63.50
2019-04-30T17:52:02.973Z,63.85
2019-04-30T17:54:36.006Z,64.12
2019-04-30T17:57:10.428Z,64.84
2019-04-30T17:59:40.714Z,66.87
2019-04-30T18:02:14.603Z,65.78
2019-04-30T18:04:47.144Z,65.64
2019-04-30T18:07:19.794Z,65.84
2019-04-30T18:09:54.345Z,68.14
2019-04-30T18:12:27.007Z,66.70
2019-04-30T18:15:00.027Z,66.78
2019-04-30T18:17:32.153Z,67.12
2019-04-30T18:20:16.593Z,67.07
2019-04-30T18:23:13.804Z,67.41
2019-04-30T18:25:49.844Z,68.15
2019-04-30T18:28:22.034Z,68.37
2019-04-30T18:30:54.273Z,68.05
2019-04-30T18:33:25.492Z,68.09
2019-04-30T18:35:59.682Z,70.80
2019-04-30T18:38:32.813Z,68.72
2019-04-30T18:41:04.111Z,69.59
2019-04-30T18:43:38.518Z,72.37
2019-04-30T18:46:11.013Z,70.50
2019-04-30T18:48:43.183Z,70.45
2019-04-30T18:51:30.610Z,70.84
2019-04-30T18:53:49.613Z,71.37
2019-04-30T18:56:22.145Z,71.70
2019-04-30T18:58:54.323Z,71.97
2019-04-30T19:01:26.792Z,72.27
2019-04-30T19:04:01.177Z,72.35
2019-04-30T19:06:33.215Z,72.71
2019-04-30T19:09:40.108Z,73.02
2019-04-30T19:12:43.297Z,76.02
2019-04-30T19:15:59.137Z,73.61
2019-04-30T19:18:36.633Z,73.13
2019-04-30T19:21:10.003Z,72.82
2019-04-30T19:23:42.634Z,72.95
2019-04-30T19:26:16.343Z,73.11
2019-04-30T19:28:49.305Z,73.26
2019-04-30T19:31:20.115Z,75.87
2019-04-30T19:33:52.364Z,76.57
2019-04-30T19:36:36.520Z,73.99
2019-04-30T19:38:59.782Z,74.24
2019-04-30T19:41:32.298Z,75.08
2019-04-30T19:44:03.175Z,74.95
2019-04-30T19:46:35.904Z,78.04
2019-04-30T19:49:09.817Z,75.06
2019-04-30T19:51:42.013Z,75.70
2019-04-30T19:54:13.943Z,75.42
2019-04-30T19:56:46.174Z,75.85
2019-04-30T19:59:19.363Z,76.11
2019-04-30T20:01:51.605Z,76.05
2019-04-30T20:04:33.195Z,76.73
2019-04-30T20:06:59.128Z,76.70
2019-04-30T20:09:31.552Z,76.46
2019-04-30T20:12:03.721Z,76.44
2019-04-30T20:14:36.734Z,76.63
2019-04-30T20:17:09.006Z,76.87
2019-04-30T20:19:41.053Z,77.36
2019-04-30T20:22:13.582Z,77.91
2019-04-30T20:24:46.283Z,77.83
2019-04-30T20:27:19.058Z,77.95
2019-04-30T20:29:52.245Z,77.78
2019-04-30T20:32:33.901Z,77.75
2019-04-30T20:34:59.787Z,77.07
2019-04-30T20:37:31.923Z,76.90
2019-04-30T20:40:09.616Z,77.65
2019-04-30T20:42:41.473Z,79.36
2019-04-30T20:45:13.634Z,77.77
2019-04-30T20:47:45.755Z,78.15
2019-04-30T20:50:16.914Z,77.90
2019-04-30T20:52:49.083Z,79.57
2019-04-30T20:55:22.299Z,78.32
2019-04-30T20:57:53.352Z,78.43
2019-04-30T21:00:25.955Z,81.08
2019-04-30T21:02:59.827Z,78.87
2019-04-30T21:05:31.945Z,79.10
2019-04-30T21:08:04.192Z,78.85
2019-04-30T21:10:36.563Z,79.47
2019-04-30T21:13:10.935Z,79.38
2019-04-30T21:15:43.583Z,79.55
2019-04-30T21:18:15.773Z,79.51
2019-04-30T21:20:49.672Z,79.55
2019-04-30T21:23:22.754Z,79.67
2019-04-30T21:25:55.223Z,79.49
2019-04-30T21:28:29.526Z,79.58
2019-04-30T21:31:19.733Z,79.77
2019-04-30T21:33:54.353Z,79.76
2019-04-30T21:36:28.503Z,79.56
2019-04-30T21:39:00.683Z,79.75
2019-04-30T21:41:34.360Z,79.51
2019-04-30T21:44:06.413Z,79.61
2019-04-30T21:46:39.389Z,80.50
2019-04-30T21:49:10.883Z,83.39
2019-04-30T21:51:42.843Z,80.68
2019-04-30T21:54:14.990Z,80.62
2019-04-30T21:56:47.026Z,80.83
2019-04-30T21:59:24.637Z,80.66
2019-04-30T22:01:52.793Z,80.61
2019-04-30T22:04:23.911Z,80.55
2019-04-30T22:06:55.873Z,83.56
2019-04-30T22:09:30.332Z,80.67
2019-04-30T22:12:02.355Z,80.50
2019-04-30T22:14:39.201Z,80.73
2019-04-30T22:17:10.893Z,80.50
2019-04-30T22:19:44.263Z,80.63
2019-04-30T22:22:15.371Z,80.44
2019-04-30T22:24:47.353Z,81.75
2019-04-30T22:27:20.033Z,79.89
2019-04-30T22:29:51.311Z,80.18
2019-04-30T22:32:23.351Z,81.98
2019-04-30T22:47:18.637Z,81.49
2019-04-30T22:50:22.813Z,81.63
2019-04-30T22:53:28.591Z,81.34
2019-04-30T22:56:05.993Z,81.19
2019-04-30T22:58:38.783Z,81.40
2019-04-30T23:01:28.254Z,81.63
2019-04-30T23:04:04.043Z,82.44
2019-04-30T23:06:36.222Z,81.84
2019-04-30T23:09:11.673Z,80.81
2019-04-30T23:11:43.699Z,80.69
2019-04-30T23:14:16.023Z,81.16
2019-04-30T23:16:48.106Z,81.76
2019-04-30T23:19:20.063Z,81.36
2019-04-30T23:21:52.134Z,80.88
2019-04-30T23:24:24.273Z,81.87
2019-04-30T23:26:56.213Z,82.56
2019-04-30T23:29:28.333Z,82.92
2019-04-30T23:32:00.223Z,82.89
2019-04-30T23:34:32.164Z,82.33
2019-04-30T23:37:04.677Z,81.54
2019-04-30T23:39:36.618Z,81.96
2019-04-30T23:42:07.791Z,81.81
2019-04-30T23:44:39.613Z,84.35
2019-04-30T23:47:11.723Z,82.57
2019-04-30T23:49:42.851Z,82.56
2019-04-30T23:52:14.613Z,84.36
2019-04-30T23:54:46.632Z,81.86
2019-04-30T23:57:18.702Z,81.61
2019-04-30T23:59:49.692Z,81.95
